sensor_id;sensor_type;location;lat;lon;timestamp;pressure;altitude;pressure_sealevel;temperature;humidity
55685;BME280;41883;49.544;8.646;2023-03-11T00:00:53;99494.47;;;1.64;64.59
55685;BME280;41883;49.544;8.646;2023-03-11T00:03:19;99502.53;;;1.61;63.52
55685;BME280;41883;49.544;8.646;2023-03-11T00:05:50;99514.72;;;1.60;63.71
55685;BME280;41883;49.544;8.646;2023-03-11T00:08:18;99516.03;;;1.55;63.32
55685;BME280;41883;49.544;8.646;2023-03-11T00:10:44;99519.69;;;1.52;64.22
55685;BME280;41883;49.544;8.646;2023-03-11T00:13:13;99514.47;;;1.52;63.88
55685;BME280;41883;49.544;8.646;2023-03-11T00:15:39;99513.28;;;1.45;63.38
55685;BME280;41883;49.544;8.646;2023-03-11T00:18:05;99512.72;;;1.41;65.07
55685;BME280;41883;49.544;8.646;2023-03-11T00:20:33;99512.47;;;1.33;65.46
55685;BME280;41883;49.544;8.646;2023-03-11T00:22:59;99515.56;;;1.27;65.52
55685;BME280;41883;49.544;8.646;2023-03-11T00:25:25;99530.47;;;1.25;65.50
55685;BME280;41883;49.544;8.646;2023-03-11T00:27:51;99525.38;;;1.23;65.65
55685;BME280;41883;49.544;8.646;2023-03-11T00:30:16;99535.19;;;1.20;65.38
55685;BME280;41883;49.544;8.646;2023-03-11T00:32:42;99521.47;;;1.18;64.51
55685;BME280;41883;49.544;8.646;2023-03-11T00:35:09;99524.16;;;1.16;65.31
55685;BME280;41883;49.544;8.646;2023-03-11T00:37:35;99552.56;;;1.08;65.99
55685;BME280;41883;49.544;8.646;2023-03-11T00:40:02;99551.50;;;1.11;65.35
55685;BME280;41883;49.544;8.646;2023-03-11T00:42:32;99563.00;;;1.08;65.79
55685;BME280;41883;49.544;8.646;2023-03-11T00:44:57;99547.59;;;1.05;66.17
55685;BME280;41883;49.544;8.646;2023-03-11T00:47:22;99560.25;;;0.98;66.68
55685;BME280;41883;49.544;8.646;2023-03-11T00:49:48;99544.84;;;0.95;66.31
55685;BME280;41883;49.544;8.646;2023-03-11T00:52:13;99543.44;;;0.91;67.02
55685;BME280;41883;49.544;8.646;2023-03-11T00:54:38;99540.44;;;0.84;67.58
55685;BME280;41883;49.544;8.646;2023-03-11T00:57:03;99538.91;;;0.82;67.35
55685;BME280;41883;49.544;8.646;2023-03-11T02:35:06;99590.38;;;1.36;68.77
55685;BME280;41883;49.544;8.646;2023-03-11T02:37:31;99589.19;;;1.40;69.03
55685;BME280;41883;49.544;8.646;2023-03-11T02:40:27;99577.03;;;1.41;69.00
55685;BME280;41883;49.544;8.646;2023-03-11T02:42:41;99577.84;;;1.41;68.65
55685;BME280;41883;49.544;8.646;2023-03-11T02:45:08;99575.69;;;1.35;68.25
55685;BME280;41883;49.544;8.646;2023-03-11T02:47:34;99585.38;;;1.33;68.36
55685;BME280;41883;49.544;8.646;2023-03-11T02:50:01;99580.53;;;1.28;68.09
55685;BME280;41883;49.544;8.646;2023-03-11T02:52:27;99582.78;;;1.22;68.57
55685;BME280;41883;49.544;8.646;2023-03-11T02:54:52;99581.59;;;1.15;68.41
55685;BME280;41883;49.544;8.646;2023-03-11T02:57:17;99592.56;;;1.07;68.63
55685;BME280;41883;49.544;8.646;2023-03-11T02:59:42;99594.56;;;1.03;68.62
55685;BME280;41883;49.544;8.646;2023-03-11T03:02:08;99591.59;;;0.97;68.60
55685;BME280;41883;49.544;8.646;2023-03-11T03:04:34;99599.97;;;0.89;69.28
55685;BME280;41883;49.544;8.646;2023-03-11T03:06:59;99609.56;;;0.89;69.29
55685;BME280;41883;49.544;8.646;2023-03-11T03:09:24;99605.06;;;0.91;69.63
55685;BME280;41883;49.544;8.646;2023-03-11T03:11:50;99601.41;;;0.93;69.15
55685;BME280;41883;49.544;8.646;2023-03-11T03:14:15;99605.41;;;0.97;69.42
55685;BME280;41883;49.544;8.646;2023-03-11T03:16:40;99611.34;;;0.99;69.01
55685;BME280;41883;49.544;8.646;2023-03-11T03:19:05;99616.69;;;0.98;69.04
55685;BME280;41883;49.544;8.646;2023-03-11T03:21:30;99610.97;;;0.93;68.64
55685;BME280;41883;49.544;8.646;2023-03-11T03:23:55;99611.28;;;0.88;68.82
55685;BME280;41883;49.544;8.646;2023-03-11T03:26:21;99611.66;;;0.83;69.32
55685;BME280;41883;49.544;8.646;2023-03-11T03:28:46;99620.72;;;0.78;69.43
55685;BME280;41883;49.544;8.646;2023-03-11T03:31:11;99621.06;;;0.73;69.44
55685;BME280;41883;49.544;8.646;2023-03-11T03:33:36;99628.59;;;0.65;69.84
55685;BME280;41883;49.544;8.646;2023-03-11T03:36:06;99640.25;;;0.59;69.62
55685;BME280;41883;49.544;8.646;2023-03-11T03:38:32;99639.91;;;0.53;69.89
55685;BME280;41883;49.544;8.646;2023-03-11T03:40:57;99636.75;;;0.48;69.81
55685;BME280;41883;49.544;8.646;2023-03-11T03:43:24;99646.56;;;0.44;69.89
55685;BME280;41883;49.544;8.646;2023-03-11T03:45:59;99647.41;;;0.45;70.25
55685;BME280;41883;49.544;8.646;2023-03-11T03:48:24;99646.56;;;0.44;70.64
55685;BME280;41883;49.544;8.646;2023-03-11T03:50:50;99643.75;;;0.47;70.48
55685;BME280;41883;49.544;8.646;2023-03-11T03:53:15;99640.94;;;0.50;70.69
55685;BME280;41883;49.544;8.646;2023-03-11T03:55:40;99646.50;;;0.57;70.37
55685;BME280;41883;49.544;8.646;2023-03-11T03:58:06;99641.72;;;0.63;70.17
55685;BME280;41883;49.544;8.646;2023-03-11T04:00:31;99644.72;;;0.70;70.14
55685;BME280;41883;49.544;8.646;2023-03-11T04:02:57;99644.16;;;0.78;69.77
55685;BME280;41883;49.544;8.646;2023-03-11T04:05:22;99652.44;;;0.83;69.48
55685;BME280;41883;49.544;8.646;2023-03-11T04:07:50;99660.53;;;0.91;69.40
55685;BME280;41883;49.544;8.646;2023-03-11T04:10:15;99655.13;;;0.94;69.21
55685;BME280;41883;49.544;8.646;2023-03-11T04:12:41;99655.72;;;0.98;69.57
55685;BME280;41883;49.544;8.646;2023-03-11T04:15:06;99657.28;;;1.00;69.32
55685;BME280;41883;49.544;8.646;2023-03-11T04:17:31;99655.38;;;1.02;68.93
55685;BME280;41883;49.544;8.646;2023-03-11T04:19:56;99657.97;;;1.02;68.58
55685;BME280;41883;49.544;8.646;2023-03-11T04:22:22;99658.94;;;1.01;68.92
55685;BME280;41883;49.544;8.646;2023-03-11T04:24:47;99673.81;;;0.99;69.29
55685;BME280;41883;49.544;8.646;2023-03-11T04:27:12;99666.97;;;0.98;68.74
55685;BME280;41883;49.544;8.646;2023-03-11T04:29:37;99674.53;;;1.01;69.02
55685;BME280;41883;49.544;8.646;2023-03-11T04:32:03;99681.53;;;1.01;69.21
55685;BME280;41883;49.544;8.646;2023-03-11T04:34:28;99672.75;;;1.02;69.21
55685;BME280;41883;49.544;8.646;2023-03-11T04:36:53;99679.03;;;0.99;69.17
55685;BME280;41883;49.544;8.646;2023-03-11T04:39:19;99677.81;;;0.92;69.41
55685;BME280;41883;49.544;8.646;2023-03-11T04:41:44;99680.16;;;0.84;69.25
55685;BME280;41883;49.544;8.646;2023-03-11T04:44:09;99685.06;;;0.76;69.45
55685;BME280;41883;49.544;8.646;2023-03-11T04:46:34;99680.31;;;0.70;69.54
55685;BME280;41883;49.544;8.646;2023-03-11T04:48:59;99671.16;;;0.64;70.12
55685;BME280;41883;49.544;8.646;2023-03-11T04:51:24;99668.19;;;0.57;69.78
55685;BME280;41883;49.544;8.646;2023-03-11T04:53:50;99668.59;;;0.51;70.34
55685;BME280;41883;49.544;8.646;2023-03-11T04:56:15;99677.69;;;0.46;70.27
55685;BME280;41883;49.544;8.646;2023-03-11T04:58:40;99679.16;;;0.37;71.23
55685;BME280;41883;49.544;8.646;2023-03-11T05:01:05;99687.19;;;0.34;71.53
55685;BME280;41883;49.544;8.646;2023-03-11T05:03:30;99684.91;;;0.29;72.00
55685;BME280;41883;49.544;8.646;2023-03-11T05:05:56;99683.34;;;0.27;72.17
55685;BME280;41883;49.544;8.646;2023-03-11T05:08:22;99692.69;;;0.29;71.86
55685;BME280;41883;49.544;8.646;2023-03-11T05:10:47;99692.38;;;0.34;72.23
55685;BME280;41883;49.544;8.646;2023-03-11T05:13:12;99694.66;;;0.38;72.39
55685;BME280;41883;49.544;8.646;2023-03-11T05:15:37;99687.56;;;0.40;72.25
55685;BME280;41883;49.544;8.646;2023-03-11T05:18:03;99686.63;;;0.41;72.24
55685;BME280;41883;49.544;8.646;2023-03-11T05:20:30;99691.19;;;0.38;72.45
55685;BME280;41883;49.544;8.646;2023-03-11T05:22:56;99691.53;;;0.33;72.42
55685;BME280;41883;49.544;8.646;2023-03-11T05:25:26;99699.53;;;0.30;72.49
55685;BME280;41883;49.544;8.646;2023-03-11T05:27:51;99698.44;;;0.22;73.09
55685;BME280;41883;49.544;8.646;2023-03-11T05:30:16;99712.56;;;0.17;73.24
55685;BME280;41883;49.544;8.646;2023-03-11T05:32:43;99709.47;;;0.12;73.05
55685;BME280;41883;49.544;8.646;2023-03-11T05:35:08;99710.50;;;0.10;72.73
55685;BME280;41883;49.544;8.646;2023-03-11T05:37:34;99720.34;;;0.05;73.66
55685;BME280;41883;49.544;8.646;2023-03-11T05:40:00;99713.59;;;0.02;73.62
55685;BME280;41883;49.544;8.646;2023-03-11T05:42:25;99721.41;;;0.02;72.96
55685;BME280;41883;49.544;8.646;2023-03-11T05:44:50;99724.22;;;-0.01;72.98
55685;BME280;41883;49.544;8.646;2023-03-11T05:47:16;99728.16;;;-0.08;73.05
55685;BME280;41883;49.544;8.646;2023-03-11T05:49:43;99730.25;;;-0.13;73.42
55685;BME280;41883;49.544;8.646;2023-03-11T05:52:10;99733.16;;;-0.18;73.18
55685;BME280;41883;49.544;8.646;2023-03-11T05:54:35;99733.47;;;-0.23;73.16
55685;BME280;41883;49.544;8.646;2023-03-11T05:57:03;99734.59;;;-0.27;73.17
55685;BME280;41883;49.544;8.646;2023-03-11T05:59:28;99733.03;;;-0.29;73.57
55685;BME280;41883;49.544;8.646;2023-03-11T06:01:54;99726.28;;;-0.32;73.46
55685;BME280;41883;49.544;8.646;2023-03-11T06:04:19;99725.66;;;-0.35;73.52
55685;BME280;41883;49.544;8.646;2023-03-11T06:06:44;99725.00;;;-0.39;73.44
55685;BME280;41883;49.544;8.646;2023-03-11T06:12:20;99728.13;;;-0.34;73.97
55685;BME280;41883;49.544;8.646;2023-03-11T06:14:45;99736.66;;;-0.32;74.34
55685;BME280;41883;49.544;8.646;2023-03-11T06:17:10;99744.06;;;-0.26;74.43
55685;BME280;41883;49.544;8.646;2023-03-11T06:19:35;99743.94;;;-0.24;74.63
55685;BME280;41883;49.544;8.646;2023-03-11T06:22:01;99745.63;;;-0.23;74.26
55685;BME280;41883;49.544;8.646;2023-03-11T06:24:33;99743.25;;;-0.26;75.19
55685;BME280;41883;49.544;8.646;2023-03-11T06:26:59;99753.72;;;-0.28;74.81
55685;BME280;41883;49.544;8.646;2023-03-11T06:29:24;99752.16;;;-0.30;76.48
55685;BME280;41883;49.544;8.646;2023-03-11T06:31:50;99754.97;;;-0.33;75.51
55685;BME280;41883;49.544;8.646;2023-03-11T06:34:16;99761.81;;;-0.32;75.06
55685;BME280;41883;49.544;8.646;2023-03-11T06:36:41;99769.50;;;-0.31;75.21
55685;BME280;41883;49.544;8.646;2023-03-11T06:39:06;99773.56;;;-0.27;75.01
55685;BME280;41883;49.544;8.646;2023-03-11T06:41:32;99779.81;;;-0.16;74.84
55685;BME280;41883;49.544;8.646;2023-03-11T06:43:58;99781.78;;;-0.07;75.03
55685;BME280;41883;49.544;8.646;2023-03-11T06:46:23;99783.69;;;0.04;75.52
55685;BME280;41883;49.544;8.646;2023-03-11T06:48:49;99786.50;;;0.13;75.27
55685;BME280;41883;49.544;8.646;2023-03-11T06:51:17;99797.84;;;0.25;74.74
55685;BME280;41883;49.544;8.646;2023-03-11T06:53:43;99795.34;;;0.36;74.69
55685;BME280;41883;49.544;8.646;2023-03-11T06:56:10;99799.94;;;0.46;74.63
55685;BME280;41883;49.544;8.646;2023-03-11T06:58:36;99807.72;;;0.58;74.17
55685;BME280;41883;49.544;8.646;2023-03-11T07:01:02;99810.50;;;0.68;73.93
55685;BME280;41883;49.544;8.646;2023-03-11T07:03:28;99818.72;;;0.75;73.74
55685;BME280;41883;49.544;8.646;2023-03-11T07:05:54;99814.53;;;0.85;73.55
55685;BME280;41883;49.544;8.646;2023-03-11T07:08:19;99824.41;;;0.93;73.61
55685;BME280;41883;49.544;8.646;2023-03-11T07:10:44;99834.91;;;1.04;73.79
55685;BME280;41883;49.544;8.646;2023-03-11T07:13:10;99836.03;;;1.13;73.26
55685;BME280;41883;49.544;8.646;2023-03-11T07:15:35;99832.38;;;1.15;73.14
55685;BME280;41883;49.544;8.646;2023-03-11T07:18:00;99834.34;;;1.12;72.64
55685;BME280;41883;49.544;8.646;2023-03-11T07:20:26;99838.50;;;1.14;72.97
55685;BME280;41883;49.544;8.646;2023-03-11T07:22:51;99843.06;;;1.23;72.79
55685;BME280;41883;49.544;8.646;2023-03-11T07:25:16;99842.66;;;1.30;72.36
55685;BME280;41883;49.544;8.646;2023-03-11T07:27:42;99853.97;;;1.41;71.99
55685;BME280;41883;49.544;8.646;2023-03-11T07:30:07;99854.84;;;1.53;71.34
55685;BME280;41883;49.544;8.646;2023-03-11T07:32:32;99859.09;;;1.67;71.16
55685;BME280;41883;49.544;8.646;2023-03-11T07:34:58;99858.03;;;1.69;70.44
55685;BME280;41883;49.544;8.646;2023-03-11T07:37:23;99856.50;;;1.78;70.40
55685;BME280;41883;49.544;8.646;2023-03-11T07:39:48;99871.31;;;1.78;69.80
55685;BME280;41883;49.544;8.646;2023-03-11T07:42:14;99873.19;;;1.76;70.09
55685;BME280;41883;49.544;8.646;2023-03-11T07:44:45;99876.19;;;1.82;71.05
55685;BME280;41883;49.544;8.646;2023-03-11T07:47:10;99878.25;;;1.90;70.68
55685;BME280;41883;49.544;8.646;2023-03-11T07:49:36;99885.28;;;2.01;70.03
55685;BME280;41883;49.544;8.646;2023-03-11T07:52:01;99887.00;;;2.13;70.57
55685;BME280;41883;49.544;8.646;2023-03-11T07:54:27;99894.50;;;2.29;70.13
55685;BME280;41883;49.544;8.646;2023-03-11T07:56:52;99894.03;;;2.35;69.67
55685;BME280;41883;49.544;8.646;2023-03-11T07:59:17;99894.66;;;2.39;69.90
55685;BME280;41883;49.544;8.646;2023-03-11T08:01:43;99902.94;;;2.32;67.89
55685;BME280;41883;49.544;8.646;2023-03-11T08:04:11;99905.50;;;2.21;68.78
55685;BME280;41883;49.544;8.646;2023-03-11T08:06:37;99903.94;;;2.19;69.37
55685;BME280;41883;49.544;8.646;2023-03-11T08:09:06;99915.94;;;2.21;68.76
55685;BME280;41883;49.544;8.646;2023-03-11T08:11:32;99922.69;;;2.24;69.56
55685;BME280;41883;49.544;8.646;2023-03-11T08:13:57;99924.47;;;2.23;69.60
55685;BME280;41883;49.544;8.646;2023-03-11T08:16:22;99924.72;;;2.20;68.28
55685;BME280;41883;49.544;8.646;2023-03-11T08:18:48;99927.09;;;2.23;68.84
55685;BME280;41883;49.544;8.646;2023-03-11T08:21:15;99931.03;;;2.29;69.58
55685;BME280;41883;49.544;8.646;2023-03-11T08:23:41;99934.84;;;2.36;70.11
55685;BME280;41883;49.544;8.646;2023-03-11T08:26:08;99944.31;;;2.72;68.58
55685;BME280;41883;49.544;8.646;2023-03-11T08:28:34;99934.44;;;3.66;72.78
55685;BME280;41883;49.544;8.646;2023-03-11T08:30:59;99947.59;;;4.73;69.08
55685;BME280;41883;49.544;8.646;2023-03-11T08:33:25;99945.50;;;5.68;70.58
55685;BME280;41883;49.544;8.646;2023-03-11T08:35:50;99941.31;;;6.35;66.01
55685;BME280;41883;49.544;8.646;2023-03-11T08:38:15;99936.72;;;7.14;66.44
55685;BME280;41883;49.544;8.646;2023-03-11T08:40:43;99939.94;;;7.91;58.93
55685;BME280;41883;49.544;8.646;2023-03-11T08:43:12;99943.25;;;8.90;65.78
55685;BME280;41883;49.544;8.646;2023-03-11T08:45:38;99937.34;;;9.65;63.97
55685;BME280;41883;49.544;8.646;2023-03-11T08:48:04;99940.03;;;9.82;60.67
55685;BME280;41883;49.544;8.646;2023-03-11T08:50:29;99946.03;;;10.16;54.98
55685;BME280;41883;49.544;8.646;2023-03-11T08:52:54;99945.63;;;9.78;54.79
55685;BME280;41883;49.544;8.646;2023-03-11T08:55:20;99940.28;;;10.21;56.99
55685;BME280;41883;49.544;8.646;2023-03-11T08:57:51;99934.41;;;11.24;53.28
55685;BME280;41883;49.544;8.646;2023-03-11T09:00:16;99933.81;;;11.45;52.76
55685;BME280;41883;49.544;8.646;2023-03-11T09:02:42;99936.50;;;12.07;47.31
55685;BME280;41883;49.544;8.646;2023-03-11T09:05:07;99939.34;;;12.44;44.43
55685;BME280;41883;49.544;8.646;2023-03-11T09:07:33;99947.16;;;12.83;39.99
55685;BME280;41883;49.544;8.646;2023-03-11T09:09:58;99942.31;;;11.72;38.99
55685;BME280;41883;49.544;8.646;2023-03-11T09:12:23;99947.41;;;10.53;40.99
55685;BME280;41883;49.544;8.646;2023-03-11T09:14:49;99949.09;;;9.71;48.28
55685;BME280;41883;49.544;8.646;2023-03-11T09:17:15;99952.78;;;9.09;46.66
55685;BME280;41883;49.544;8.646;2023-03-11T09:19:41;99950.72;;;8.33;45.73
55685;BME280;41883;49.544;8.646;2023-03-11T09:22:06;99945.63;;;7.68;47.09
55685;BME280;41883;49.544;8.646;2023-03-11T09:24:32;99950.19;;;7.38;49.26
55685;BME280;41883;49.544;8.646;2023-03-11T09:26:59;99947.16;;;7.06;48.03
55685;BME280;41883;49.544;8.646;2023-03-11T09:29:24;99950.13;;;6.73;47.50
55685;BME280;41883;49.544;8.646;2023-03-11T09:31:49;99943.66;;;7.05;47.77
55685;BME280;41883;49.544;8.646;2023-03-11T09:34:14;99939.94;;;7.91;48.42
55685;BME280;41883;49.544;8.646;2023-03-11T09:36:40;99954.84;;;8.98;45.93
55685;BME280;41883;49.544;8.646;2023-03-11T09:39:05;99939.19;;;9.30;43.69
55685;BME280;41883;49.544;8.646;2023-03-11T09:41:33;99943.59;;;8.69;44.57
55685;BME280;41883;49.544;8.646;2023-03-11T09:46:49;99947.94;;;7.43;45.32
55685;BME280;41883;49.544;8.646;2023-03-11T09:54:29;99949.88;;;7.97;42.88
55685;BME280;41883;49.544;8.646;2023-03-11T09:56:58;99946.53;;;7.77;44.29
55685;BME280;41883;49.544;8.646;2023-03-11T09:59:34;99950.59;;;7.71;45.43
55685;BME280;41883;49.544;8.646;2023-03-11T10:02:01;99944.00;;;7.85;43.18
55685;BME280;41883;49.544;8.646;2023-03-11T10:04:32;99943.75;;;7.78;44.29
55685;BME280;41883;49.544;8.646;2023-03-11T10:07:05;99941.34;;;7.39;43.68
55685;BME280;41883;49.544;8.646;2023-03-11T10:09:47;99948.84;;;6.97;43.82
55685;BME280;41883;49.544;8.646;2023-03-11T10:22:24;99949.66;;;6.97;43.00
55685;BME280;41883;49.544;8.646;2023-03-11T10:25:10;99957.63;;;6.49;44.19
55685;BME280;41883;49.544;8.646;2023-03-11T10:30:42;99960.94;;;6.41;44.75
55685;BME280;41883;49.544;8.646;2023-03-11T10:33:26;99965.22;;;6.42;43.33
55685;BME280;41883;49.544;8.646;2023-03-11T10:35:54;99962.47;;;7.48;43.50
55685;BME280;41883;49.544;8.646;2023-03-11T10:40:52;99976.72;;;11.32;nan
55685;BME280;41883;49.544;8.646;2023-03-11T10:45:50;99961.91;;;15.74;nan
55685;BME280;41883;49.544;8.646;2023-03-11T10:48:16;99969.03;;;17.21;nan
55685;BME280;41883;49.544;8.646;2023-03-11T10:51:30;99960.81;;;17.88;nan
55685;BME280;41883;49.544;8.646;2023-03-11T10:53:28;99958.53;;;17.91;nan
55685;BME280;41883;49.544;8.646;2023-03-11T10:55:54;99961.19;;;17.33;nan
55685;BME280;41883;49.544;8.646;2023-03-11T10:58:23;99968.84;;;16.69;nan
55685;BME280;41883;49.544;8.646;2023-03-11T11:01:04;99962.50;;;14.71;nan
55685;BME280;41883;49.544;8.646;2023-03-11T11:03:32;99970.22;;;12.98;nan
55685;BME280;41883;49.544;8.646;2023-03-11T11:05:58;99969.06;;;12.39;nan
55685;BME280;41883;49.544;8.646;2023-03-11T11:08:24;99971.72;;;12.62;nan
55685;BME280;41883;49.544;8.646;2023-03-11T11:10:50;99977.78;;;10.82;nan
55685;BME280;41883;49.544;8.646;2023-03-11T11:13:17;99975.75;;;9.60;nan
55685;BME280;41883;49.544;8.646;2023-03-11T11:18:24;99975.53;;;8.30;nan
55685;BME280;41883;49.544;8.646;2023-03-11T11:20:55;99968.25;;;7.79;nan
55685;BME280;41883;49.544;8.646;2023-03-11T11:23:26;99964.31;;;7.37;nan
55685;BME280;41883;49.544;8.646;2023-03-11T11:25:56;99968.69;;;7.19;nan
55685;BME280;41883;49.544;8.646;2023-03-11T11:28:22;99965.16;;;6.91;nan
55685;BME280;41883;49.544;8.646;2023-03-11T11:31:18;99965.84;;;6.93;nan
55685;BME280;41883;49.544;8.646;2023-03-11T11:33:41;99960.03;;;8.09;nan
55685;BME280;41883;49.544;8.646;2023-03-11T11:36:13;99967.81;;;9.94;nan
55685;BME280;41883;49.544;8.646;2023-03-11T11:38:39;99963.25;;;12.21;nan
55685;BME280;41883;49.544;8.646;2023-03-11T11:41:04;99963.84;;;14.02;nan
55685;BME280;41883;49.544;8.646;2023-03-11T11:43:41;99958.97;;;14.06;nan
55685;BME280;41883;49.544;8.646;2023-03-11T11:46:21;99963.47;;;13.69;nan
55685;BME280;41883;49.544;8.646;2023-03-11T11:48:49;99952.38;;;12.07;nan
55685;BME280;41883;49.544;8.646;2023-03-11T11:51:20;99959.41;;;11.05;nan
55685;BME280;41883;49.544;8.646;2023-03-11T11:56:11;99951.50;;;9.22;nan
55685;BME280;41883;49.544;8.646;2023-03-11T11:58:36;99950.75;;;8.51;nan
55685;BME280;41883;49.544;8.646;2023-03-11T12:01:12;99957.03;;;8.04;nan
55685;BME280;41883;49.544;8.646;2023-03-11T12:03:43;99955.84;;;7.71;nan
55685;BME280;41883;49.544;8.646;2023-03-11T12:06:15;99948.19;;;7.78;nan
55685;BME280;41883;49.544;8.646;2023-03-11T12:08:56;99948.31;;;8.04;nan
55685;BME280;41883;49.544;8.646;2023-03-11T12:11:59;99945.44;;;8.33;nan
55685;BME280;41883;49.544;8.646;2023-03-11T12:14:20;99940.63;;;8.11;nan
55685;BME280;41883;49.544;8.646;2023-03-11T12:19:16;99949.09;;;8.76;nan
55685;BME280;41883;49.544;8.646;2023-03-11T12:24:21;99945.63;;;9.36;nan
55685;BME280;41883;49.544;8.646;2023-03-11T12:26:56;99946.31;;;9.38;nan
55685;BME280;41883;49.544;8.646;2023-03-11T12:29:28;99943.84;;;9.10;nan
55685;BME280;41883;49.544;8.646;2023-03-11T12:31:55;99938.66;;;8.66;nan
55685;BME280;41883;49.544;8.646;2023-03-11T12:34:21;99934.53;;;8.28;nan
55685;BME280;41883;49.544;8.646;2023-03-11T12:36:48;99933.91;;;7.80;nan
55685;BME280;41883;49.544;8.646;2023-03-11T12:39:31;99946.97;;;7.72;nan
55685;BME280;41883;49.544;8.646;2023-03-11T12:44:35;99945.38;;;7.61;nan
55685;BME280;41883;49.544;8.646;2023-03-11T12:47:01;99935.91;;;7.69;nan
55685;BME280;41883;49.544;8.646;2023-03-11T12:49:28;99940.25;;;8.23;nan
55685;BME280;41883;49.544;8.646;2023-03-11T12:54:29;99941.16;;;8.50;nan
55685;BME280;41883;49.544;8.646;2023-03-11T12:57:08;99934.16;;;8.23;nan
55685;BME280;41883;49.544;8.646;2023-03-11T13:07:38;99934.53;;;7.47;nan
55685;BME280;41883;49.544;8.646;2023-03-11T13:15:40;99928.75;;;7.33;nan
55685;BME280;41883;49.544;8.646;2023-03-11T13:20:48;99938.81;;;7.10;nan
55685;BME280;41883;49.544;8.646;2023-03-11T13:41:34;99975.19;;;5.69;nan
55685;BME280;41883;49.544;8.646;2023-03-11T13:44:11;99974.75;;;5.64;nan
55685;BME280;41883;49.544;8.646;2023-03-11T13:46:41;99979.00;;;5.55;nan
55685;BME280;41883;49.544;8.646;2023-03-11T13:49:25;99980.59;;;5.67;nan
55685;BME280;41883;49.544;8.646;2023-03-11T13:51:58;99977.13;;;5.77;nan
55685;BME280;41883;49.544;8.646;2023-03-11T13:54:37;99976.59;;;5.83;nan
55685;BME280;41883;49.544;8.646;2023-03-11T13:57:10;99971.34;;;5.83;nan
55685;BME280;41883;49.544;8.646;2023-03-11T13:59:40;99970.38;;;5.84;nan
55685;BME280;41883;49.544;8.646;2023-03-11T14:04:32;99962.03;;;6.00;nan
55685;BME280;41883;49.544;8.646;2023-03-11T14:07:12;99968.41;;;6.16;nan
55685;BME280;41883;49.544;8.646;2023-03-11T14:09:41;99966.47;;;6.38;nan
55685;BME280;41883;49.544;8.646;2023-03-11T14:12:12;99978.22;;;6.44;nan
55685;BME280;41883;49.544;8.646;2023-03-11T14:17:18;99970.88;;;6.47;nan
55685;BME280;41883;49.544;8.646;2023-03-11T14:20:00;99994.53;;;6.28;nan
55685;BME280;41883;49.544;8.646;2023-03-11T14:22:35;99985.41;;;6.32;nan
55685;BME280;41883;49.544;8.646;2023-03-11T14:25:02;99984.16;;;6.36;nan
55685;BME280;41883;49.544;8.646;2023-03-11T14:27:38;99985.53;;;6.21;nan
55685;BME280;41883;49.544;8.646;2023-03-11T14:30:05;99988.16;;;6.21;nan
55685;BME280;41883;49.544;8.646;2023-03-11T14:32:40;99993.56;;;6.29;nan
55685;BME280;41883;49.544;8.646;2023-03-11T14:35:18;100005.72;;;6.30;nan
55685;BME280;41883;49.544;8.646;2023-03-11T14:37:44;100003.34;;;6.27;nan
55685;BME280;41883;49.544;8.646;2023-03-11T14:40:26;100009.19;;;6.30;nan
55685;BME280;41883;49.544;8.646;2023-03-11T14:42:53;100010.97;;;6.30;nan
55685;BME280;41883;49.544;8.646;2023-03-11T14:45:30;100008.75;;;6.15;nan
55685;BME280;41883;49.544;8.646;2023-03-11T14:48:12;100002.22;;;6.10;nan
55685;BME280;41883;49.544;8.646;2023-03-11T14:50:42;100010.78;;;6.02;nan
55685;BME280;41883;49.544;8.646;2023-03-11T14:55:45;99991.88;;;6.08;nan
55685;BME280;41883;49.544;8.646;2023-03-11T15:01:01;99989.25;;;6.08;nan
55685;BME280;41883;49.544;8.646;2023-03-11T15:03:36;99985.94;;;6.16;nan
55685;BME280;41883;49.544;8.646;2023-03-11T15:08:34;99985.53;;;6.01;nan
55685;BME280;41883;49.544;8.646;2023-03-11T15:13:32;99976.97;;;5.68;nan
55685;BME280;41883;49.544;8.646;2023-03-11T15:16:03;99979.00;;;5.55;nan
55685;BME280;41883;49.544;8.646;2023-03-11T15:18:31;99987.03;;;5.53;nan
55685;BME280;41883;49.544;8.646;2023-03-11T15:21:01;99993.31;;;5.41;nan
55685;BME280;41883;49.544;8.646;2023-03-11T15:23:33;99992.16;;;5.24;nan
55685;BME280;41883;49.544;8.646;2023-03-11T15:26:02;99992.53;;;5.20;nan
55685;BME280;41883;49.544;8.646;2023-03-11T15:28:31;99994.06;;;5.22;nan
55685;BME280;41883;49.544;8.646;2023-03-11T15:33:44;99992.97;;;5.25;nan
55685;BME280;41883;49.544;8.646;2023-03-11T15:36:28;99994.84;;;5.13;nan
55685;BME280;41883;49.544;8.646;2023-03-11T15:39:10;99996.75;;;5.11;nan
55685;BME280;41883;49.544;8.646;2023-03-11T15:41:40;100002.50;;;5.05;nan
55685;BME280;41883;49.544;8.646;2023-03-11T15:44:28;100004.13;;;4.96;nan
55685;BME280;41883;49.544;8.646;2023-03-11T15:46:57;100003.75;;;5.01;nan
55685;BME280;41883;49.544;8.646;2023-03-11T15:49:33;100016.03;;;5.10;nan
55685;BME280;41883;49.544;8.646;2023-03-11T15:52:07;100010.69;;;5.11;nan
55685;BME280;41883;49.544;8.646;2023-03-11T15:54:36;100006.53;;;5.09;nan
55685;BME280;41883;49.544;8.646;2023-03-11T15:57:06;100011.84;;;4.98;nan
55685;BME280;41883;49.544;8.646;2023-03-11T15:59:32;100002.13;;;4.88;nan
55685;BME280;41883;49.544;8.646;2023-03-11T16:02:00;100006.22;;;4.81;nan
55685;BME280;41883;49.544;8.646;2023-03-11T16:04:26;100008.47;;;4.65;nan
55685;BME280;41883;49.544;8.646;2023-03-11T16:10:18;100028.56;;;4.43;nan
55685;BME280;41883;49.544;8.646;2023-03-11T16:12:44;100021.66;;;4.31;nan
55685;BME280;41883;49.544;8.646;2023-03-11T16:15:23;100024.09;;;4.12;nan
55685;BME280;41883;49.544;8.646;2023-03-11T16:17:53;100034.72;;;4.10;nan
55685;BME280;41883;49.544;8.646;2023-03-11T16:20:19;100038.25;;;4.09;nan
55685;BME280;41883;49.544;8.646;2023-03-11T16:22:48;100041.59;;;4.11;nan
55685;BME280;41883;49.544;8.646;2023-03-11T16:25:30;100047.78;;;4.10;nan
55685;BME280;41883;49.544;8.646;2023-03-11T16:28:03;100049.81;;;4.07;nan
55685;BME280;41883;49.544;8.646;2023-03-11T16:30:30;100048.16;;;4.06;nan
55685;BME280;41883;49.544;8.646;2023-03-11T16:33:01;100050.41;;;3.99;nan
55685;BME280;41883;49.544;8.646;2023-03-11T16:35:50;100046.00;;;3.99;nan